Time;durP1;ratioP1;P1;durP2;ratioP2;P2;SDS_P1;SDS_P2;PMS_P1;PMS_P2;Temp;Humidity;BMP_temperature;BMP_pressure;BME280_temperature;BME280_humidity;BME280_pressure;Samples;Min_cycle;Max_cycle;Signal;HPM_P1;HPM_P2
2022/02/13 00:00:28;;;;;;;3.03;2.10;;;;;;;;;;5073196;28;20415;-77
2022/02/13 00:02:54;;;;;;;3.97;1.90;;;;;;;;;;5074645;28;20469;-77
2022/02/13 00:05:20;;;;;;;3.93;2.37;;;-1.10;99.90;;;;;;5074141;28;20411;-77
2022/02/13 00:07:46;;;;;;;4.60;2.47;;;;;;;;;;5072992;28;20185;-77
2022/02/13 00:10:13;;;;;;;3.40;2.00;;;-1.20;99.90;;;;;;5074240;28;20223;-77
2022/02/13 00:12:39;;;;;;;5.30;2.53;;;;;;;;;;5074476;28;20832;-77
2022/02/13 00:15:06;;;;;;;2.17;1.57;;;-1.30;99.90;;;;;;5072741;28;20490;-77
2022/02/13 00:17:32;;;;;;;3.83;2.03;;;;;;;;;;5072864;28;20443;-77
2022/02/13 00:19:59;;;;;;;5.07;2.83;;;;;;;;;;5074044;28;20436;-77
2022/02/13 00:22:25;;;;;;;4.10;2.23;;;-1.20;99.90;;;;;;5074081;28;20864;-77
2022/02/13 00:24:51;;;;;;;2.73;1.73;;;;;;;;;;5072783;28;20426;-78
2022/02/13 00:27:17;;;;;;;12.33;2.07;;;-1.10;99.90;;;;;;5074301;28;20414;-78
2022/02/13 00:29:43;;;;;;;2.77;1.70;;;-1.10;99.90;;;;;;5072692;28;20483;-78
2022/02/13 00:32:09;;;;;;;2.83;1.63;;;-1.20;99.90;;;;;;5073864;28;20459;-77
2022/02/13 00:34:35;;;;;;;1.70;1.60;;;;;;;;;;5072374;28;20191;-78
2022/02/13 00:37:02;;;;;;;2.37;1.50;;;;;;;;;;5072701;28;20412;-77
2022/02/13 00:39:27;;;;;;;3.33;1.87;;;-1.00;99.90;;;;;;5073440;28;20564;-78
2022/02/13 00:41:54;;;;;;;3.50;1.73;;;-1.00;99.90;;;;;;5072574;28;20506;-77
2022/02/13 00:44:19;;;;;;;3.10;1.77;;;-1.00;99.90;;;;;;5072529;28;20321;-77
2022/02/13 00:46:45;;;;;;;2.03;1.83;;;-1.10;99.90;;;;;;5073804;28;20920;-77
2022/02/13 00:49:11;;;;;;;2.27;2.07;;;;;;;;;;5073687;28;20256;-77
2022/02/13 00:51:37;;;;;;;6.27;1.17;;;-1.10;99.90;;;;;;5073597;28;20180;-77
2022/02/13 00:54:03;;;;;;;5.03;1.90;;;-1.10;99.90;;;;;;5073535;28;20422;-77
2022/02/13 00:56:29;;;;;;;1.80;1.40;;;;;;;;;;5073745;28;20197;-77
2022/02/13 00:58:55;;;;;;;2.53;1.50;;;;;;;;;;5073655;28;20589;-77
2022/02/13 01:01:21;;;;;;;3.70;1.40;;;-1.00;99.90;;;;;;5073470;28;20437;-77
2022/02/13 01:03:47;;;;;;;1.90;1.47;;;;;;;;;;5073541;28;20169;-77
2022/02/13 01:06:13;;;;;;;1.83;1.60;;;;;;;;;;5073334;28;20199;-77
2022/02/13 01:08:39;;;;;;;3.47;1.73;;;;;;;;;;5073394;28;20438;-77
2022/02/13 01:11:06;;;;;;;2.03;1.27;;;-1.10;99.90;;;;;;5072143;28;20754;-78
2022/02/13 01:13:32;;;;;;;2.30;1.40;;;;;;;;;;5073315;28;20419;-77
2022/02/13 01:16:00;;;;;;;4.10;1.40;;;-1.20;99.90;;;;;;5073105;28;20447;-78
2022/02/13 01:18:26;;;;;;;1.87;1.37;;;-1.20;99.90;;;;;;5073303;28;21022;-77
2022/02/13 01:20:52;;;;;;;3.43;1.60;;;-1.30;99.90;;;;;;5072066;28;20411;-77
2022/02/13 01:23:19;;;;;;;1.60;1.40;;;;;;;;;;5073330;28;20408;-77
2022/02/13 01:25:45;;;;;;;1.33;1.20;;;;;;;;;;5073136;28;20422;-77
2022/02/13 01:28:11;;;;;;;1.87;1.63;;;;;;;;;;5073292;28;20471;-77
2022/02/13 01:30:36;;;;;;;1.63;1.40;;;-1.00;99.90;;;;;;5076094;28;20407;-77
2022/02/13 01:33:03;;;;;;;6.27;1.77;;;-1.10;99.90;;;;;;5079069;28;20535;-77
2022/02/13 01:35:30;;;;;;;4.70;1.53;;;-1.00;99.90;;;;;;5072995;28;20211;-77
2022/02/13 01:37:56;;;;;;;2.73;1.70;;;;;;;;;;5073329;28;20952;-76
2022/02/13 01:40:22;;;;;;;2.93;1.40;;;;;;;;;;5071899;28;20419;-76
2022/02/13 01:42:48;;;;;;;2.53;1.60;;;;;;;;;;5071920;28;20476;-76
2022/02/13 01:45:14;;;;;;;2.30;1.50;;;-1.00;99.90;;;;;;5072789;28;20888;-76
2022/02/13 01:47:40;;;;;;;5.73;1.70;;;;;;;;;;5073108;28;20196;-76
2022/02/13 01:50:09;;;;;;;2.93;1.87;;;-1.00;99.90;;;;;;5072822;28;20220;-76
2022/02/13 01:52:35;;;;;;;1.17;0.97;;;;;;;;;;5074177;28;20435;-77
2022/02/13 01:55:02;;;;;;;1.73;1.20;;;;;;;;;;5076883;28;20449;-76
2022/02/13 01:57:28;;;;;;;1.97;1.47;;;;;;;;;;5076904;28;20399;-76
2022/02/13 01:59:55;;;;;;;2.07;1.27;;;-1.00;99.90;;;;;;5075208;28;20517;-77
2022/02/13 02:02:21;;;;;;;1.40;1.20;;;-1.20;99.90;;;;;;5075690;28;20415;-76
2022/02/13 02:04:47;;;;;;;1.60;1.43;;;-0.80;99.90;;;;;;5075276;28;20415;-77
2022/02/13 02:07:13;;;;;;;1.20;1.07;;;-1.10;99.90;;;;;;5076038;28;20264;-77
2022/02/13 02:09:45;;;;;;;2.00;1.40;;;-1.40;99.90;;;;;;5076617;28;20457;-77
2022/02/13 02:12:11;;;;;;;1.73;1.50;;;-1.30;99.90;;;;;;5077020;28;20426;-77
2022/02/13 02:14:37;;;;;;;1.07;0.97;;;;;;;;;;5075235;28;20415;-76
2022/02/13 02:17:03;;;;;;;2.20;1.57;;;;;;;;;;5076470;28;20174;-76
2022/02/13 02:19:31;;;;;;;1.70;1.23;;;-1.10;99.90;;;;;;5076354;28;20423;-76
2022/02/13 02:21:57;;;;;;;2.33;1.33;;;;;;;;;;5076662;28;20904;-76
2022/02/13 02:24:23;;;;;;;3.57;1.57;;;;;;;;;;5076343;28;20772;-77
2022/02/13 02:26:49;;;;;;;1.70;1.30;;;;;;;;;;5076385;28;20419;-76
2022/02/13 02:29:15;;;;;;;1.70;1.20;;;-1.10;99.90;;;;;;5076714;28;20442;-76
2022/02/13 02:31:41;;;;;;;2.50;1.60;;;;;;;;;;5076280;28;20192;-76
2022/02/13 02:34:07;;;;;;;2.30;1.30;;;;;;;;;;5076214;28;20188;-76
2022/02/13 02:36:33;;;;;;;1.80;1.30;;;;;;;;;;5076419;28;20464;-75
2022/02/13 02:38:59;;;;;;;2.90;1.57;;;-0.90;99.90;;;;;;5076386;28;20839;-76
2022/02/13 02:41:26;;;;;;;1.03;0.93;;;-1.00;99.90;;;;;;5076040;28;20177;-76
2022/02/13 02:43:52;;;;;;;1.60;0.93;;;;;;;;;;5076051;28;20205;-76
2022/02/13 02:46:17;;;;;;;1.47;1.30;;;-0.90;99.90;;;;;;5075841;28;20465;-76
2022/02/13 02:48:43;;;;;;;4.63;1.57;;;;;;;;;;5075796;28;20442;-76
2022/02/13 02:51:10;;;;;;;3.63;1.37;;;;;;;;;;5075848;28;20177;-76
2022/02/13 02:53:36;;;;;;;2.30;1.20;;;;;;;;;;5075758;28;20419;-78
2022/02/13 02:56:04;;;;;;;6.00;1.63;;;-1.10;99.90;;;;;;5074635;28;20455;-77
2022/02/13 02:58:30;;;;;;;1.90;1.47;;;;;;;;;;5075890;28;20920;-76
2022/02/13 03:00:56;;;;;;;1.93;1.23;;;-1.10;99.90;;;;;;5075963;28;20411;-76
2022/02/13 03:03:22;;;;;;;1.43;1.20;;;;;;;;;;5075797;28;20422;-76
2022/02/13 03:05:48;;;;;;;1.87;1.33;;;-1.10;99.90;;;;;;5075325;28;20549;-76
2022/02/13 03:08:15;;;;;;;2.20;1.07;;;-1.10;99.90;;;;;;5075554;28;20439;-76
2022/02/13 03:10:41;;;;;;;1.90;1.40;;;;;;;;;;5075823;28;20492;-77
2022/02/13 03:13:07;;;;;;;1.30;1.20;;;;;;;;;;5075718;28;20764;-77
2022/02/13 03:15:33;;;;;;;1.83;1.40;;;;;;;;;;5075230;28;20944;-77
2022/02/13 03:17:59;;;;;;;2.83;1.13;;;-1.10;99.90;;;;;;5075246;28;20404;-77
2022/02/13 03:20:25;;;;;;;5.30;1.53;;;;;;;;;;5075335;28;20411;-77
2022/02/13 03:22:51;;;;;;;4.27;1.47;;;;;;;;;;5075254;28;20623;-76
2022/02/13 03:25:17;;;;;;;4.17;1.50;;;;;;;;;;5075087;28;20411;-77
2022/02/13 03:27:43;;;;;;;2.40;1.43;;;;;;;;;;5075263;28;20414;-76
2022/02/13 03:30:09;;;;;;;1.80;1.40;;;-1.10;99.90;;;;;;5075023;28;20262;-76
2022/02/13 03:32:35;;;;;;;3.13;1.67;;;;;;;;;;5074995;28;20778;-76
2022/02/13 03:35:01;;;;;;;4.63;1.53;;;;;;;;;;5075152;28;20197;-77
2022/02/13 03:37:27;;;;;;;0.97;0.83;;;-1.40;99.90;;;;;;5078317;28;20657;-76
2022/02/13 03:39:53;;;;;;;1.73;1.40;;;-1.30;99.90;;;;;;5074872;28;20427;-76
2022/02/13 03:42:19;;;;;;;1.27;1.13;;;-1.40;99.90;;;;;;5074980;28;20252;-76
2022/02/13 03:44:47;;;;;;;1.60;1.30;;;;;;;;;;5074721;28;20173;-77
2022/02/13 03:47:13;;;;;;;2.07;1.20;;;;;;;;;;5074901;28;20407;-77
2022/02/13 03:49:39;;;;;;;2.40;1.50;;;;;;;;;;5073420;28;20470;-77
2022/02/13 03:52:05;;;;;;;1.30;1.20;;;-1.20;99.90;;;;;;5074633;28;20407;-77
2022/02/13 03:54:31;;;;;;;2.47;1.30;;;;;;;;;;5074461;28;20769;-77
2022/02/13 03:56:57;;;;;;;1.27;1.10;;;;;;;;;;5074565;28;20462;-77
2022/02/13 03:59:23;;;;;;;1.83;1.23;;;-1.20;99.90;;;;;;5074636;28;20512;-76
2022/02/13 04:01:49;;;;;;;3.70;1.50;;;-1.30;99.90;;;;;;5074606;28;20177;-77
2022/02/13 04:04:15;;;;;;;1.10;1.00;;;;;;;;;;5074532;28;20173;-77
2022/02/13 04:06:40;;;;;;;1.13;1.03;;;-1.20;99.90;;;;;;5073077;28;20279;-76
2022/02/13 04:09:06;;;;;;;1.27;1.17;;;-1.20;99.90;;;;;;5074410;28;20522;-77
2022/02/13 04:11:32;;;;;;;0.60;0.60;;;-1.20;99.90;;;;;;5074514;28;20172;-77
2022/02/13 04:13:58;;;;;;;1.10;1.00;;;;;;;;;;5072812;28;20186;-76
2022/02/13 04:16:24;;;;;;;1.47;1.10;;;;;;;;;;5072538;28;20211;-77
2022/02/13 04:18:50;;;;;;;1.73;1.20;;;-1.20;99.90;;;;;;5072900;28;20435;-77
2022/02/13 04:21:16;;;;;;;2.33;1.47;;;-1.10;99.90;;;;;;5074450;28;20179;-76
2022/02/13 04:23:42;;;;;;;2.33;1.10;;;;;;;;;;5072769;28;20180;-77
2022/02/13 04:26:08;;;;;;;3.17;1.63;;;;;;;;;;5072651;28;20422;-77
2022/02/13 04:28:34;;;;;;;1.50;1.17;;;;;;;;;;5073849;28;20985;-77
2022/02/13 04:31:00;;;;;;;1.57;1.07;;;;;;;;;;5073812;28;20461;-77
2022/02/13 04:33:26;;;;;;;2.00;1.37;;;;;;;;;;5073850;28;20464;-77
2022/02/13 04:35:52;;;;;;;0.80;0.80;;;-1.10;99.90;;;;;;5073582;28;20454;-77
2022/02/13 04:38:18;;;;;;;1.20;1.07;;;;;;;;;;5072589;28;20200;-77
2022/02/13 04:40:44;;;;;;;1.20;1.00;;;;;;;;;;5072619;28;20623;-77
2022/02/13 04:43:10;;;;;;;1.83;1.30;;;-1.30;99.90;;;;;;5074097;28;20419;-77
2022/02/13 04:45:36;;;;;;;1.30;1.00;;;;;;;;;;5072194;28;20427;-77
2022/02/13 04:48:01;;;;;;;1.23;1.07;;;-1.40;99.90;;;;;;5072264;28;20181;-76
2022/02/13 04:50:28;;;;;;;2.20;1.10;;;;;;;;;;5072365;28;20419;-77
2022/02/13 04:52:55;;;;;;;1.60;1.20;;;-1.20;99.90;;;;;;5072494;28;20187;-77
2022/02/13 04:55:21;;;;;;;2.07;1.20;;;-0.60;99.90;;;;;;5073415;28;20550;-77
2022/02/13 04:57:48;;;;;;;1.70;1.20;;;-1.10;99.90;;;;;;5073594;28;20411;-77
2022/02/13 05:00:15;;;;;;;3.10;0.80;;;-1.40;99.90;;;;;;5073478;28;20496;-77
2022/02/13 05:02:41;;;;;;;1.87;1.17;;;-0.80;99.90;;;;;;5073497;28;20415;-77
2022/02/13 05:05:07;;;;;;;3.13;1.20;;;-1.20;99.90;;;;;;5072040;28;20423;-77
2022/02/13 05:07:34;;;;;;;2.37;1.20;;;;;;;;;;5073516;28;20411;-77
2022/02/13 05:10:00;;;;;;;1.30;1.10;;;-0.90;99.90;;;;;;5073446;28;20774;-77
2022/02/13 05:12:26;;;;;;;1.73;1.00;;;;;;;;;;5073634;28;20406;-76
2022/02/13 05:14:52;;;;;;;1.93;0.93;;;;;;;;;;5073194;28;20464;-77
2022/02/13 05:17:19;;;;;;;1.73;1.10;;;;;;;;;;5072112;28;20443;-77
2022/02/13 05:19:45;;;;;;;5.40;2.00;;;;;;;;;;5073263;28;20419;-77
2022/02/13 05:22:11;;;;;;;1.80;1.20;;;;;;;;;;5073612;28;20442;-77
2022/02/13 05:24:37;;;;;;;1.03;0.93;;;-1.20;99.90;;;;;;5072008;28;20415;-77
2022/02/13 05:27:04;;;;;;;1.67;1.00;;;-1.20;99.90;;;;;;5074777;28;20672;-77
2022/02/13 05:29:30;;;;;;;1.57;1.10;;;;;;;;;;5076208;28;20200;-76
2022/02/13 05:31:56;;;;;;;2.53;1.30;;;;;;;;;;5077249;28;20495;-77
2022/02/13 05:34:23;;;;;;;1.07;0.90;;;;;;;;;;5077208;28;20410;-77
2022/02/13 05:36:49;;;;;;;1.07;0.90;;;;;;;;;;5077423;28;20454;-76
2022/02/13 05:39:15;;;;;;;2.63;1.20;;;;;;;;;;5076000;28;20937;-77
2022/02/13 05:41:42;;;;;;;1.50;1.20;;;-1.20;99.90;;;;;;5081048;28;20464;-77
2022/02/13 05:44:08;;;;;;;1.13;0.97;;;;;;;;;;5075642;28;20477;-77
2022/02/13 05:46:34;;;;;;;1.53;1.00;;;-1.30;99.90;;;;;;5075828;28;20600;-77
2022/02/13 05:49:00;;;;;;;1.13;0.70;;;;;;;;;;5075766;28;20568;-77
2022/02/13 05:51:26;;;;;;;1.97;1.07;;;;;;;;;;5077351;28;20439;-77
2022/02/13 05:53:56;;;;;;;1.53;1.13;;;-1.40;99.90;;;;;;5075508;28;20925;-75
2022/02/13 05:56:23;;;;;;;1.03;0.93;;;-1.50;99.90;;;;;;5077013;28;20852;-77
2022/02/13 05:58:50;;;;;;;1.17;0.77;;;;;;;;;;5076742;28;20423;-77
2022/02/13 06:01:17;;;;;;;0.80;0.80;;;;;;;;;;5075529;28;20416;-76
2022/02/13 06:03:42;;;;;;;1.50;0.90;;;-1.30;99.90;;;;;;5076695;28;20407;-77
2022/02/13 06:06:08;;;;;;;1.57;0.90;;;;;;;;;;5076541;28;20500;-76
2022/02/13 06:08:35;;;;;;;1.20;1.10;;;;;;;;;;5076616;28;20283;-77
2022/02/13 06:11:00;;;;;;;1.37;1.20;;;-1.30;99.90;;;;;;5075346;28;20965;-77
2022/02/13 06:13:26;;;;;;;3.10;1.27;;;;;;;;;;5076481;28;20510;-76
2022/02/13 06:15:52;;;;;;;1.37;0.90;;;-1.20;99.90;;;;;;5076167;28;20559;-77
2022/02/13 06:18:18;;;;;;;1.90;1.03;;;-1.40;99.90;;;;;;5076336;28;20438;-77
2022/02/13 06:20:44;;;;;;;1.27;0.90;;;-1.10;99.90;;;;;;5075355;28;20188;-77
2022/02/13 06:23:10;;;;;;;3.43;1.00;;;-1.20;99.90;;;;;;5075153;28;20184;-77
2022/02/13 06:25:37;;;;;;;1.10;0.80;;;-1.10;99.90;;;;;;5074973;28;20602;-77
2022/02/13 06:28:03;;;;;;;1.83;1.20;;;;;;;;;;5076333;28;20504;-77
2022/02/13 06:30:29;;;;;;;7.07;1.23;;;;;;;;;;5075989;28;20469;-77
2022/02/13 06:32:57;;;;;;;1.77;1.37;;;-1.10;99.90;;;;;;5076772;28;20396;-77
2022/02/13 06:35:24;;;;;;;1.20;1.10;;;;;;;;;;5074664;28;20200;-76
2022/02/13 06:37:50;;;;;;;1.23;0.93;;;;;;;;;;5075716;28;20442;-77
2022/02/13 06:40:16;;;;;;;1.17;0.80;;;;;;;;;;5075738;28;20423;-77
2022/02/13 06:42:42;;;;;;;3.47;1.30;;;-1.20;99.90;;;;;;5075861;28;20410;-77
2022/02/13 06:45:08;;;;;;;2.53;1.00;;;-1.40;99.90;;;;;;5075919;28;20457;-77
2022/02/13 06:47:34;;;;;;;1.50;1.07;;;;;;;;;;5074697;28;20185;-77
2022/02/13 06:50:00;;;;;;;1.63;0.87;;;-1.30;99.90;;;;;;5075970;28;20461;-77
2022/02/13 06:52:26;;;;;;;1.17;1.00;;;-1.00;99.90;;;;;;5076451;28;20419;-77
2022/02/13 06:54:52;;;;;;;1.53;0.80;;;;;;;;;;5074327;28;20176;-77
2022/02/13 06:57:18;;;;;;;2.60;1.40;;;;;;;;;;5074505;28;20226;-77
2022/02/13 06:59:44;;;;;;;4.63;1.23;;;-1.10;99.90;;;;;;5074705;28;20568;-76
2022/02/13 07:02:10;;;;;;;1.33;1.17;;;-1.10;99.90;;;;;;5074614;28;20880;-76
2022/02/13 07:04:39;;;;;;;1.23;1.00;;;-1.00;99.90;;;;;;5075535;28;20179;-77
2022/02/13 07:07:06;;;;;;;1.50;1.27;;;-1.00;99.90;;;;;;5074233;28;20453;-76
2022/02/13 07:09:33;;;;;;;1.33;1.17;;;-1.00;99.90;;;;;;5075099;28;20458;-76
2022/02/13 07:12:04;;;;;;;1.23;0.87;;;-0.90;99.90;;;;;;5075517;28;20415;-77
2022/02/13 07:14:31;;;;;;;1.13;0.90;;;;;;;;;;5075682;28;20403;-77
2022/02/13 07:16:57;;;;;;;1.53;1.00;;;;;;;;;;5074225;28;20554;-77
2022/02/13 07:19:23;;;;;;;1.30;1.07;;;-0.60;99.90;;;;;;5074045;28;20519;-77
2022/02/13 07:21:49;;;;;;;1.37;1.17;;;;;;;;;;5075626;28;20631;-76
2022/02/13 07:24:15;;;;;;;1.37;1.20;;;-0.80;99.90;;;;;;5075261;28;20180;-76
2022/02/13 07:26:40;;;;;;;1.10;1.00;;;-0.30;99.90;;;;;;5075440;28;20204;-77
2022/02/13 07:29:09;;;;;;;1.47;1.07;;;;;;;;;;5073962;28;20270;-76
2022/02/13 07:31:35;;;;;;;6.53;1.30;;;-0.40;99.90;;;;;;5073826;28;20270;-76
2022/02/13 07:34:01;;;;;;;2.17;1.57;;;0.50;99.90;;;;;;5075044;28;20790;-76
2022/02/13 07:36:27;;;;;;;4.50;1.63;;;-0.20;99.90;;;;;;5075066;28;20447;-77
2022/02/13 07:38:53;;;;;;;1.83;1.13;;;-0.20;99.90;;;;;;5074945;28;20781;-77
2022/02/13 07:41:20;;;;;;;1.73;1.00;;;-0.10;99.90;;;;;;5074259;28;20419;-77
2022/02/13 07:43:45;;;;;;;2.00;1.50;;;-0.10;99.90;;;;;;5075346;28;20417;-76
2022/02/13 07:46:11;;;;;;;7.60;1.60;;;-0.10;99.90;;;;;;5075782;28;20415;-77
2022/02/13 07:48:37;;;;;;;0.93;0.90;;;-0.10;99.90;;;;;;5075266;28;20265;-78
2022/02/13 07:51:04;;;;;;;1.93;1.37;;;-0.10;99.90;;;;;;5074237;28;20234;-77
2022/02/13 07:53:30;;;;;;;1.50;1.40;;;0.00;99.90;;;;;;5074794;28;20169;-77
2022/02/13 07:55:55;;;;;;;4.27;1.67;;;0.10;99.90;;;;;;5074446;28;20454;-77
2022/02/13 07:58:21;;;;;;;2.40;1.80;;;0.20;99.90;;;;;;5073330;28;20208;-76
2022/02/13 08:00:48;;;;;;;3.27;1.60;;;0.30;99.90;;;;;;5073430;28;20175;-77
2022/02/13 08:03:13;;;;;;;1.37;1.20;;;0.30;99.90;;;;;;5074408;28;20698;-76
2022/02/13 08:05:39;;;;;;;2.03;1.37;;;0.50;99.90;;;;;;5073099;28;20522;-76
2022/02/13 08:08:05;;;;;;;2.67;1.70;;;1.10;98.60;;;;;;5074706;28;20177;-77
2022/02/13 08:10:31;;;;;;;1.07;0.93;;;1.20;98.80;;;;;;5059715;28;20198;-77
2022/02/13 08:12:57;;;;;;;2.27;1.20;;;1.40;97.60;;;;;;5053084;28;20182;-77
2022/02/13 08:15:23;;;;;;;1.80;1.47;;;1.70;96.70;;;;;;5054843;28;20197;-77
2022/02/13 08:17:49;;;;;;;1.50;1.23;;;2.20;95.30;;;;;;5074448;28;20794;-77
2022/02/13 08:20:15;;;;;;;4.70;1.90;;;2.50;94.20;;;;;;5072843;28;20228;-78
2022/02/13 08:22:42;;;;;;;2.20;1.60;;;2.60;93.40;;;;;;5073005;28;20181;-77
2022/02/13 08:25:10;;;;;;;2.50;1.60;;;2.90;92.60;;;;;;5072799;28;20509;-77
2022/02/13 08:27:36;;;;;;;2.83;1.60;;;3.50;91.50;;;;;;5074492;28;20422;-77
2022/02/13 08:30:03;;;;;;;1.60;1.50;;;3.70;90.40;;;;;;5073932;28;20527;-77
2022/02/13 08:32:29;;;;;;;2.10;1.70;;;4.00;88.50;;;;;;5072684;28;20193;-77
2022/02/13 08:34:54;;;;;;;2.00;1.80;;;3.90;86.50;;;;;;5073957;28;20189;-77
2022/02/13 08:37:20;;;;;;;2.20;2.00;;;4.20;86.10;;;;;;5074229;28;20177;-77
2022/02/13 08:39:47;;;;;;;2.37;1.83;;;4.30;85.10;;;;;;5050600;28;20698;-77
2022/02/13 08:42:12;;;;;;;4.33;1.60;;;4.30;83.20;;;;;;5074559;28;20182;-77
2022/02/13 08:44:38;;;;;;;2.20;2.00;;;4.40;83.10;;;;;;5074189;28;20175;-77
2022/02/13 08:47:04;;;;;;;3.07;1.90;;;4.40;82.80;;;;;;5075769;28;20184;-78
2022/02/13 08:49:30;;;;;;;3.73;2.03;;;4.30;81.90;;;;;;5076493;28;20209;-78
2022/02/13 08:51:56;;;;;;;3.23;1.97;;;4.60;80.60;;;;;;5074380;28;20264;-77
2022/02/13 08:54:22;;;;;;;3.30;2.43;;;4.60;81.10;;;;;;5074580;28;20192;-78
2022/02/13 08:56:48;;;;;;;2.40;2.20;;;4.50;81.40;;;;;;5074210;28;20200;-78
2022/02/13 08:59:13;;;;;;;3.47;2.10;;;4.90;79.40;;;;;;5074260;28;20292;-77
2022/02/13 09:01:39;;;;;;;3.10;1.93;;;5.00;79.90;;;;;;5077438;28;20176;-78
2022/02/13 09:04:05;;;;;;;6.27;2.47;;;5.30;79.30;;;;;;5075271;28;20651;-78
2022/02/13 09:06:30;;;;;;;6.97;3.00;;;5.50;78.50;;;;;;5075789;28;20181;-78
2022/02/13 09:08:56;;;;;;;5.43;2.93;;;5.90;79.20;;;;;;5076991;28;20199;-77
2022/02/13 09:11:22;;;;;;;3.00;2.10;;;6.20;76.70;;;;;;5075560;28;20169;-78
2022/02/13 09:13:47;;;;;;;2.90;2.00;;;5.90;75.90;;;;;;5080111;28;20164;-78
2022/02/13 09:16:13;;;;;;;4.33;2.00;;;6.10;76.70;;;;;;5080057;28;20192;-78
2022/02/13 09:18:41;;;;;;;6.87;2.33;;;6.00;75.50;;;;;;5080015;28;20192;-78
2022/02/13 09:21:07;;;;;;;3.10;2.23;;;6.10;76.00;;;;;;5078641;28;20631;-79
2022/02/13 09:23:32;;;;;;;3.97;2.20;;;6.10;75.10;;;;;;5078905;28;20200;-78
2022/02/13 09:25:58;;;;;;;6.30;2.70;;;6.10;75.80;;;;;;5076002;28;20177;-78
2022/02/13 09:28:23;;;;;;;3.27;1.87;;;6.40;76.00;;;;;;5075630;28;20576;-78
2022/02/13 09:30:50;;;;;;;2.77;2.10;;;6.50;74.10;;;;;;5074452;28;20194;-78
2022/02/13 09:33:18;;;;;;;5.30;2.13;;;6.60;74.60;;;;;;5075614;28;20173;-77
2022/02/13 09:35:44;;;;;;;3.30;2.07;;;6.90;74.80;;;;;;5074308;28;20197;-78
2022/02/13 09:38:15;;;;;;;4.73;2.03;;;7.10;73.90;;;;;;5074731;28;20168;-77
2022/02/13 09:40:44;;;;;;;2.80;1.83;;;7.30;72.90;;;;;;5077006;28;20574;-78
2022/02/13 09:43:10;;;;;;;4.77;2.00;;;7.30;73.90;;;;;;5078404;28;20184;-78
2022/02/13 09:45:40;;;;;;;3.83;2.23;;;7.70;74.30;;;;;;5080221;28;20170;-78
2022/02/13 09:48:07;;;;;;;4.00;2.00;;;7.90;71.60;;;;;;5080329;28;20171;-78
2022/02/13 09:50:36;;;;;;;4.53;2.00;;;7.70;72.30;;;;;;5077767;28;20178;-78
2022/02/13 09:53:04;;;;;;;2.17;1.80;;;7.60;72.80;;;;;;5074032;28;20593;-78
2022/02/13 09:55:30;;;;;;;3.53;2.17;;;7.90;71.70;;;;;;5076353;28;20711;-78
2022/02/13 09:57:59;;;;;;;4.73;2.30;;;8.00;71.50;;;;;;5076021;28;20158;-78
2022/02/13 10:00:54;;;;;;;3.90;2.20;;;8.20;71.20;;;;;;5075603;28;20174;-78
2022/02/13 10:03:25;;;;;;;4.70;2.53;;;8.00;70.90;;;;;;5075935;28;20620;-78
2022/02/13 10:05:53;;;;;;;4.87;2.20;;;8.00;70.90;;;;;;5077413;28;20175;-78
2022/02/13 10:08:34;;;;;;;5.90;2.67;;;8.20;71.40;;;;;;5074743;28;20292;-78
2022/02/13 10:11:12;;;;;;;2.93;1.70;;;8.30;71.40;;;;;;5075853;28;20178;-77
2022/02/13 10:13:52;;;;;;;4.80;2.17;;;8.60;70.10;;;;;;5077424;28;20168;-78
2022/02/13 10:16:34;;;;;;;2.83;2.00;;;8.80;70.50;;;;;;5078730;28;20196;-78
2022/02/13 10:19:07;;;;;;;3.17;2.00;;;9.20;69.00;;;;;;5078333;28;20196;-78
2022/02/13 10:21:50;;;;;;;2.53;1.70;;;9.60;68.50;;;;;;5078228;28;20659;-77
2022/02/13 10:24:28;;;;;;;4.57;2.30;;;9.90;68.70;;;;;;5075772;28;20174;-78
2022/02/13 10:26:56;;;;;;;5.17;1.93;;;10.00;66.80;;;;;;5076983;28;20172;-79
2022/02/13 10:29:30;;;;;;;3.53;2.00;;;10.10;65.80;;;;;;5078230;28;20191;-78
2022/02/13 10:32:11;;;;;;;5.13;2.00;;;10.50;66.30;;;;;;5079138;28;20188;-78
2022/02/13 10:34:37;;;;;;;6.53;2.30;;;10.30;65.30;;;;;;5079431;28;20179;-78
2022/02/13 10:37:03;;;;;;;3.30;1.70;;;10.60;65.60;;;;;;5079390;28;20259;-78
2022/02/13 10:39:29;;;;;;;3.93;2.20;;;10.60;66.30;;;;;;5081100;28;20185;-78
2022/02/13 10:41:56;;;;;;;2.97;1.80;;;10.90;68.40;;;;;;5080701;28;20256;-79
2022/02/13 10:44:27;;;;;;;3.07;1.70;;;11.40;64.60;;;;;;5080323;28;20173;-79
2022/02/13 10:46:54;;;;;;;4.67;2.00;;;11.70;69.90;;;;;;5082333;28;20176;-78
2022/02/13 10:49:20;;;;;;;2.73;1.90;;;11.90;63.40;;;;;;5078316;28;20200;-78
2022/02/13 10:51:46;;;;;;;4.40;2.30;;;11.80;63.30;;;;;;5078417;28;20173;-78
2022/02/13 10:54:12;;;;;;;6.03;2.40;;;11.70;63.70;;;;;;5076980;28;20177;-78
2022/02/13 10:56:39;;;;;;;4.80;1.90;;;11.80;62.80;;;;;;5078415;28;20195;-78
2022/02/13 10:59:09;;;;;;;3.87;2.30;;;11.80;62.60;;;;;;5079374;28;20564;-78
2022/02/13 11:01:36;;;;;;;6.83;2.30;;;11.70;63.00;;;;;;5081000;28;20189;-78
2022/02/13 11:04:04;;;;;;;4.43;2.13;;;12.10;64.00;;;;;;5080960;28;20218;-79
2022/02/13 11:06:38;;;;;;;3.80;2.23;;;12.30;62.90;;;;;;5081483;28;20173;-78
2022/02/13 11:09:13;;;;;;;2.13;1.70;;;12.70;64.20;;;;;;5079994;28;20196;-78
2022/02/13 11:11:40;;;;;;;4.13;1.90;;;12.80;61.50;;;;;;5084298;28;20206;-78
2022/02/13 11:14:06;;;;;;;6.27;2.57;;;12.60;59.80;;;;;;5077198;28;20185;-79
2022/02/13 11:16:38;;;;;;;4.93;2.03;;;12.80;64.20;;;;;;5078431;28;20193;-78
2022/02/13 11:19:13;;;;;;;3.30;2.07;;;12.70;59.10;;;;;;5077548;28;20206;-78
2022/02/13 11:21:41;;;;;;;3.83;1.83;;;12.90;61.00;;;;;;5081688;28;20171;-77
2022/02/13 11:24:22;;;;;;;2.80;1.87;;;13.20;60.30;;;;;;5082469;28;20192;-79
2022/02/13 11:26:47;;;;;;;3.20;1.77;;;13.30;61.10;;;;;;5085963;28;20173;-79
2022/02/13 11:29:15;;;;;;;4.83;1.80;;;13.60;60.20;;;;;;5096870;28;20228;-78
2022/02/13 11:31:45;;;;;;;2.73;2.00;;;13.70;61.00;;;;;;5097528;28;20196;-78
2022/02/13 11:34:27;;;;;;;3.10;1.83;;;14.10;58.40;;;;;;5083851;28;20617;-79
2022/02/13 11:37:08;;;;;;;3.57;1.93;;;14.40;58.50;;;;;;5080970;28;20213;-79
2022/02/13 11:39:35;;;;;;;4.00;2.07;;;14.40;55.70;;;;;;5080587;28;20189;-79
2022/02/13 11:42:03;;;;;;;3.50;2.00;;;14.10;58.40;;;;;;5079704;28;20176;-78
2022/02/13 11:44:34;;;;;;;6.10;2.30;;;14.50;59.80;;;;;;5079753;28;20186;-78
2022/02/13 11:47:00;;;;;;;3.27;2.37;;;15.00;59.80;;;;;;5078227;28;20200;-77
2022/02/13 11:49:26;;;;;;;4.63;2.40;;;15.40;56.40;;;;;;5078169;28;20227;-77
2022/02/13 11:51:58;;;;;;;6.93;2.40;;;15.60;57.40;;;;;;5079032;28;20211;-78
2022/02/13 11:54:40;;;;;;;3.33;1.80;;;15.40;55.10;;;;;;5081052;28;20181;-79
2022/02/13 11:57:08;;;;;;;4.97;2.00;;;15.40;55.60;;;;;;5078170;28;20186;-78
2022/02/13 11:59:52;;;;;;;3.03;2.00;;;15.30;50.80;;;;;;5080886;28;20196;-78
2022/02/13 12:02:30;;;;;;;5.40;1.90;;;15.20;52.50;;;;;;5077434;28;20515;-78
2022/02/13 12:05:11;;;;;;;4.67;1.70;;;15.70;49.70;;;;;;5081203;28;20179;-78
2022/02/13 12:07:45;;;;;;;3.97;1.97;;;16.20;50.40;;;;;;5076572;28;20173;-78
2022/02/13 12:10:29;;;;;;;2.43;1.70;;;16.90;53.40;;;;;;5076355;28;20196;-78
2022/02/13 12:13:08;;;;;;;2.93;1.40;;;16.40;46.80;;;;;;5077525;28;20165;-78
2022/02/13 12:15:35;;;;;;;2.73;1.80;;;16.10;47.70;;;;;;5082318;28;20178;-78
2022/02/13 12:18:14;;;;;;;1.87;1.60;;;15.90;45.20;;;;;;5082575;28;20200;-78
2022/02/13 12:20:41;;;;;;;2.90;1.90;;;16.00;48.00;;;;;;5078409;28;20176;-78
2022/02/13 12:23:12;;;;;;;3.23;1.63;;;16.10;46.30;;;;;;5076755;28;20174;-78
2022/02/13 12:25:42;;;;;;;3.23;1.40;;;16.50;44.80;;;;;;5077370;28;20269;-78
2022/02/13 12:28:09;;;;;;;3.50;1.60;;;16.70;42.10;;;;;;5076834;28;20535;-78
2022/02/13 12:30:36;;;;;;;3.73;1.70;;;17.00;43.50;;;;;;5075771;28;20178;-78
2022/02/13 12:33:03;;;;;;;4.33;2.10;;;17.30;42.90;;;;;;5075826;28;20170;-78
2022/02/13 12:35:34;;;;;;;3.90;1.70;;;17.10;40.80;;;;;;5075537;28;20169;-78
2022/02/13 12:38:02;;;;;;;3.93;2.10;;;16.90;41.10;;;;;;5073880;28;20174;-78
2022/02/13 12:40:39;;;;;;;2.97;1.87;;;17.30;41.20;;;;;;5075114;28;20179;-78
2022/02/13 12:43:07;;;;;;;3.50;1.70;;;17.70;42.00;;;;;;5075024;28;20222;-79
2022/02/13 12:45:35;;;;;;;4.80;1.87;;;17.70;38.90;;;;;;5075952;28;20189;-78
2022/02/13 12:48:03;;;;;;;2.73;1.90;;;17.00;40.10;;;;;;5074417;28;20537;-78
2022/02/13 12:50:34;;;;;;;3.30;1.53;;;17.20;40.90;;;;;;5075849;28;20517;-78
2022/02/13 12:53:08;;;;;;;2.53;1.60;;;17.30;42.70;;;;;;5076018;28;20639;-78
2022/02/13 12:55:35;;;;;;;1.40;1.30;;;17.30;41.40;;;;;;5074138;28;20169;-78
2022/02/13 12:58:02;;;;;;;2.83;1.40;;;17.40;40.40;;;;;;5075449;28;20277;-78
2022/02/13 13:00:28;;;;;;;4.37;1.60;;;17.40;39.00;;;;;;5074082;28;20208;-78
2022/02/13 13:03:03;;;;;;;2.07;1.70;;;17.80;39.40;;;;;;5075848;28;20177;-78
2022/02/13 13:05:41;;;;;;;3.23;1.70;;;17.80;39.00;;;;;;5077776;28;20224;-78
2022/02/13 13:08:14;;;;;;;6.50;1.63;;;17.80;38.70;;;;;;5075420;28;20164;-78
2022/02/13 13:11:01;;;;;;;3.30;1.70;;;17.70;38.00;;;;;;5075847;28;20174;-78
2022/02/13 13:13:27;;;;;;;1.63;1.23;;;17.90;37.40;;;;;;5075890;28;20157;-78
2022/02/13 13:16:03;;;;;;;2.13;1.50;;;18.50;38.20;;;;;;5076246;28;20665;-79
2022/02/13 13:18:34;;;;;;;1.63;1.43;;;18.60;37.20;;;;;;5076941;28;20193;-78
2022/02/13 13:21:31;;;;;;;2.60;1.57;;;19.00;36.80;;;;;;5084076;28;20177;-78